sensor_id;sensor_type;location;lat;lon;timestamp;P1;durP1;ratioP1;P2;durP2;ratioP2
77591;SDS011;66891;46.884;17.436;2023-02-02T00:01:18;23.25;;;10.02;;
77591;SDS011;66891;46.884;17.436;2023-02-02T00:03:47;22.95;;;10.02;;
77591;SDS011;66891;46.884;17.436;2023-02-02T00:06:18;22.67;;;9.97;;
77591;SDS011;66891;46.884;17.436;2023-02-02T00:08:46;22.92;;;10.02;;
77591;SDS011;66891;46.884;17.436;2023-02-02T00:11:13;22.35;;;9.77;;
77591;SDS011;66891;46.884;17.436;2023-02-02T00:13:41;20.30;;;9.15;;
77591;SDS011;66891;46.884;17.436;2023-02-02T00:19:09;21.10;;;9.10;;
77591;SDS011;66891;46.884;17.436;2023-02-02T00:21:39;20.52;;;8.68;;
77591;SDS011;66891;46.884;17.436;2023-02-02T00:24:07;24.65;;;10.52;;
77591;SDS011;66891;46.884;17.436;2023-02-02T00:26:36;21.45;;;9.77;;
77591;SDS011;66891;46.884;17.436;2023-02-02T00:29:04;18.73;;;8.18;;
77591;SDS011;66891;46.884;17.436;2023-02-02T00:31:33;20.38;;;8.10;;
77591;SDS011;66891;46.884;17.436;2023-02-02T00:34:00;17.33;;;8.15;;
77591;SDS011;66891;46.884;17.436;2023-02-02T00:36:28;21.63;;;8.75;;
77591;SDS011;66891;46.884;17.436;2023-02-02T00:38:57;18.73;;;8.10;;
77591;SDS011;66891;46.884;17.436;2023-02-02T00:41:24;20.08;;;8.00;;
77591;SDS011;66891;46.884;17.436;2023-02-02T00:43:51;19.70;;;8.18;;
77591;SDS011;66891;46.884;17.436;2023-02-02T00:46:38;21.50;;;8.98;;
77591;SDS011;66891;46.884;17.436;2023-02-02T00:49:06;20.33;;;8.35;;
77591;SDS011;66891;46.884;17.436;2023-02-02T00:51:35;21.02;;;8.20;;
77591;SDS011;66891;46.884;17.436;2023-02-02T00:54:04;22.35;;;9.35;;
77591;SDS011;66891;46.884;17.436;2023-02-02T00:56:31;23.05;;;9.13;;
77591;SDS011;66891;46.884;17.436;2023-02-02T00:58:59;24.88;;;9.80;;
77591;SDS011;66891;46.884;17.436;2023-02-02T01:01:26;23.73;;;9.80;;
77591;SDS011;66891;46.884;17.436;2023-02-02T01:03:54;20.40;;;8.30;;
77591;SDS011;66891;46.884;17.436;2023-02-02T01:06:22;20.15;;;7.78;;
77591;SDS011;66891;46.884;17.436;2023-02-02T01:08:49;22.00;;;9.50;;
77591;SDS011;66891;46.884;17.436;2023-02-02T01:11:18;25.98;;;11.40;;
77591;SDS011;66891;46.884;17.436;2023-02-02T01:13:45;24.58;;;10.40;;
77591;SDS011;66891;46.884;17.436;2023-02-02T01:16:12;21.85;;;8.50;;
77591;SDS011;66891;46.884;17.436;2023-02-02T01:18:40;19.33;;;9.07;;
77591;SDS011;66891;46.884;17.436;2023-02-02T01:21:07;61.27;;;23.33;;
77591;SDS011;66891;46.884;17.436;2023-02-02T01:23:37;91.47;;;31.88;;
77591;SDS011;66891;46.884;17.436;2023-02-02T01:26:05;48.55;;;17.85;;
77591;SDS011;66891;46.884;17.436;2023-02-02T01:28:36;28.88;;;9.88;;
77591;SDS011;66891;46.884;17.436;2023-02-02T01:31:06;18.77;;;6.60;;
77591;SDS011;66891;46.884;17.436;2023-02-02T01:33:36;14.45;;;6.03;;
77591;SDS011;66891;46.884;17.436;2023-02-02T01:36:04;15.50;;;5.60;;
77591;SDS011;66891;46.884;17.436;2023-02-02T01:38:32;17.35;;;6.28;;
77591;SDS011;66891;46.884;17.436;2023-02-02T01:41:00;16.20;;;6.28;;
77591;SDS011;66891;46.884;17.436;2023-02-02T01:46:19;18.92;;;6.43;;
77591;SDS011;66891;46.884;17.436;2023-02-02T01:48:49;15.90;;;6.32;;
77591;SDS011;66891;46.884;17.436;2023-02-02T01:51:20;17.38;;;6.68;;
77591;SDS011;66891;46.884;17.436;2023-02-02T01:53:51;16.85;;;6.50;;
77591;SDS011;66891;46.884;17.436;2023-02-02T01:56:22;17.27;;;6.57;;
77591;SDS011;66891;46.884;17.436;2023-02-02T01:58:54;17.58;;;7.00;;
77591;SDS011;66891;46.884;17.436;2023-02-02T02:01:22;19.33;;;7.57;;
77591;SDS011;66891;46.884;17.436;2023-02-02T02:03:50;18.55;;;7.13;;
77591;SDS011;66891;46.884;17.436;2023-02-02T02:06:17;18.88;;;7.53;;
77591;SDS011;66891;46.884;17.436;2023-02-02T02:08:46;19.27;;;7.90;;
77591;SDS011;66891;46.884;17.436;2023-02-02T02:11:17;18.13;;;6.88;;
77591;SDS011;66891;46.884;17.436;2023-02-02T02:13:45;13.95;;;6.50;;
77591;SDS011;66891;46.884;17.436;2023-02-02T02:16:36;15.75;;;6.35;;
77591;SDS011;66891;46.884;17.436;2023-02-02T02:19:17;15.82;;;6.15;;
77591;SDS011;66891;46.884;17.436;2023-02-02T02:22:00;18.17;;;6.53;;
77591;SDS011;66891;46.884;17.436;2023-02-02T02:25:12;17.25;;;6.22;;
77591;SDS011;66891;46.884;17.436;2023-02-02T02:28:33;16.10;;;5.28;;
77591;SDS011;66891;46.884;17.436;2023-02-02T02:34:24;8.68;;;1.95;;
77591;SDS011;66891;46.884;17.436;2023-02-02T02:36:59;7.57;;;1.80;;
77591;SDS011;66891;46.884;17.436;2023-02-02T02:39:37;3.13;;;0.38;;
77591;SDS011;66891;46.884;17.436;2023-02-02T02:42:11;3.60;;;0.40;;
77591;SDS011;66891;46.884;17.436;2023-02-02T02:44:41;4.97;;;0.77;;
77591;SDS011;66891;46.884;17.436;2023-02-02T02:47:09;4.35;;;0.50;;
77591;SDS011;66891;46.884;17.436;2023-02-02T02:49:42;2.58;;;0.20;;
77591;SDS011;66891;46.884;17.436;2023-02-02T02:52:10;4.57;;;0.47;;
77591;SDS011;66891;46.884;17.436;2023-02-02T02:54:39;4.13;;;0.30;;
77591;SDS011;66891;46.884;17.436;2023-02-02T02:57:16;2.95;;;0.30;;
77591;SDS011;66891;46.884;17.436;2023-02-02T02:59:57;3.00;;;0.40;;
77591;SDS011;66891;46.884;17.436;2023-02-02T03:02:34;3.35;;;0.20;;
77591;SDS011;66891;46.884;17.436;2023-02-02T03:05:10;1.88;;;0.30;;
77591;SDS011;66891;46.884;17.436;2023-02-02T03:07:54;3.50;;;0.28;;
77591;SDS011;66891;46.884;17.436;2023-02-02T03:10:29;2.55;;;0.30;;
77591;SDS011;66891;46.884;17.436;2023-02-02T03:12:57;2.58;;;0.30;;
77591;SDS011;66891;46.884;17.436;2023-02-02T03:15:25;2.08;;;0.20;;
77591;SDS011;66891;46.884;17.436;2023-02-02T03:17:55;3.70;;;0.30;;
77591;SDS011;66891;46.884;17.436;2023-02-02T03:20:24;2.88;;;0.30;;
77591;SDS011;66891;46.884;17.436;2023-02-02T03:22:51;2.88;;;0.28;;
77591;SDS011;66891;46.884;17.436;2023-02-02T03:25:18;2.10;;;0.20;;
77591;SDS011;66891;46.884;17.436;2023-02-02T03:27:46;1.95;;;0.10;;
77591;SDS011;66891;46.884;17.436;2023-02-02T03:30:13;1.35;;;0.17;;
77591;SDS011;66891;46.884;17.436;2023-02-02T03:32:41;1.90;;;0.20;;
77591;SDS011;66891;46.884;17.436;2023-02-02T03:35:10;2.85;;;0.20;;
77591;SDS011;66891;46.884;17.436;2023-02-02T03:37:38;3.15;;;0.35;;
77591;SDS011;66891;46.884;17.436;2023-02-02T03:40:06;2.17;;;0.30;;
77591;SDS011;66891;46.884;17.436;2023-02-02T03:42:34;2.60;;;0.20;;
77591;SDS011;66891;46.884;17.436;2023-02-02T03:45:02;36.30;;;11.63;;
77591;SDS011;66891;46.884;17.436;2023-02-02T03:47:30;9.50;;;1.65;;
77591;SDS011;66891;46.884;17.436;2023-02-02T03:49:58;3.40;;;0.45;;
77591;SDS011;66891;46.884;17.436;2023-02-02T03:52:26;7.47;;;0.85;;
77591;SDS011;66891;46.884;17.436;2023-02-02T03:54:55;1.70;;;0.20;;
77591;SDS011;66891;46.884;17.436;2023-02-02T03:57:23;1.90;;;0.10;;
77591;SDS011;66891;46.884;17.436;2023-02-02T03:59:50;2.05;;;0.20;;
77591;SDS011;66891;46.884;17.436;2023-02-02T04:02:17;0.57;;;0.10;;
77591;SDS011;66891;46.884;17.436;2023-02-02T04:04:45;1.40;;;0.20;;
77591;SDS011;66891;46.884;17.436;2023-02-02T04:07:12;2.13;;;0.20;;
77591;SDS011;66891;46.884;17.436;2023-02-02T04:09:40;2.30;;;0.20;;
77591;SDS011;66891;46.884;17.436;2023-02-02T04:12:09;3.25;;;0.30;;
77591;SDS011;66891;46.884;17.436;2023-02-02T04:14:36;5.32;;;0.70;;
77591;SDS011;66891;46.884;17.436;2023-02-02T04:17:03;1.98;;;0.20;;
77591;SDS011;66891;46.884;17.436;2023-02-02T04:19:30;4.50;;;0.60;;
77591;SDS011;66891;46.884;17.436;2023-02-02T04:21:58;7.88;;;0.68;;
77591;SDS011;66891;46.884;17.436;2023-02-02T04:24:25;8.88;;;1.90;;
77591;SDS011;66891;46.884;17.436;2023-02-02T04:26:52;2.75;;;0.30;;
77591;SDS011;66891;46.884;17.436;2023-02-02T04:29:21;4.15;;;0.40;;
77591;SDS011;66891;46.884;17.436;2023-02-02T04:31:48;2.90;;;0.20;;
77591;SDS011;66891;46.884;17.436;2023-02-02T04:34:16;1.05;;;0.15;;
77591;SDS011;66891;46.884;17.436;2023-02-02T04:36:43;6.07;;;1.08;;
77591;SDS011;66891;46.884;17.436;2023-02-02T04:39:11;2.60;;;0.30;;
77591;SDS011;66891;46.884;17.436;2023-02-02T04:41:39;4.03;;;0.45;;
77591;SDS011;66891;46.884;17.436;2023-02-02T04:44:09;1.60;;;0.20;;
77591;SDS011;66891;46.884;17.436;2023-02-02T04:46:41;3.67;;;0.28;;
77591;SDS011;66891;46.884;17.436;2023-02-02T04:49:08;4.38;;;0.50;;
77591;SDS011;66891;46.884;17.436;2023-02-02T04:51:37;4.50;;;0.52;;
77591;SDS011;66891;46.884;17.436;2023-02-02T04:54:05;3.42;;;0.32;;
77591;SDS011;66891;46.884;17.436;2023-02-02T04:56:33;2.57;;;0.27;;
77591;SDS011;66891;46.884;17.436;2023-02-02T04:59:00;1.55;;;0.20;;
77591;SDS011;66891;46.884;17.436;2023-02-02T05:01:28;23.17;;;5.65;;
77591;SDS011;66891;46.884;17.436;2023-02-02T05:03:58;9.13;;;1.33;;
77591;SDS011;66891;46.884;17.436;2023-02-02T05:06:25;5.20;;;0.50;;
77591;SDS011;66891;46.884;17.436;2023-02-02T05:08:52;8.67;;;1.33;;
77591;SDS011;66891;46.884;17.436;2023-02-02T05:11:21;5.82;;;0.85;;
77591;SDS011;66891;46.884;17.436;2023-02-02T05:13:49;10.63;;;2.22;;
77591;SDS011;66891;46.884;17.436;2023-02-02T05:16:19;4.07;;;0.35;;
77591;SDS011;66891;46.884;17.436;2023-02-02T05:18:48;2.25;;;0.30;;
77591;SDS011;66891;46.884;17.436;2023-02-02T05:21:17;5.72;;;0.52;;
77591;SDS011;66891;46.884;17.436;2023-02-02T05:23:45;6.78;;;1.08;;
77591;SDS011;66891;46.884;17.436;2023-02-02T05:26:16;4.97;;;0.70;;
77591;SDS011;66891;46.884;17.436;2023-02-02T05:28:45;4.93;;;0.40;;
77591;SDS011;66891;46.884;17.436;2023-02-02T05:31:13;6.97;;;0.63;;
77591;SDS011;66891;46.884;17.436;2023-02-02T05:33:40;7.95;;;1.10;;
77591;SDS011;66891;46.884;17.436;2023-02-02T05:36:08;4.85;;;0.40;;
77591;SDS011;66891;46.884;17.436;2023-02-02T05:38:37;2.58;;;0.22;;
77591;SDS011;66891;46.884;17.436;2023-02-02T05:41:04;2.55;;;0.20;;
77591;SDS011;66891;46.884;17.436;2023-02-02T05:43:32;4.60;;;1.17;;
77591;SDS011;66891;46.884;17.436;2023-02-02T05:46:00;3.73;;;0.27;;
77591;SDS011;66891;46.884;17.436;2023-02-02T05:48:27;3.28;;;0.40;;
77591;SDS011;66891;46.884;17.436;2023-02-02T05:50:56;4.40;;;0.50;;
77591;SDS011;66891;46.884;17.436;2023-02-02T05:53:28;4.35;;;0.50;;
77591;SDS011;66891;46.884;17.436;2023-02-02T05:55:58;3.40;;;0.30;;
77591;SDS011;66891;46.884;17.436;2023-02-02T05:58:25;2.90;;;0.30;;
77591;SDS011;66891;46.884;17.436;2023-02-02T06:00:53;22.55;;;8.02;;
77591;SDS011;66891;46.884;17.436;2023-02-02T06:03:22;17.35;;;5.70;;
77591;SDS011;66891;46.884;17.436;2023-02-02T06:05:50;10.73;;;3.40;;
77591;SDS011;66891;46.884;17.436;2023-02-02T06:08:17;8.68;;;2.42;;
77591;SDS011;66891;46.884;17.436;2023-02-02T06:10:45;7.18;;;1.77;;
77591;SDS011;66891;46.884;17.436;2023-02-02T06:13:14;7.25;;;1.80;;
77591;SDS011;66891;46.884;17.436;2023-02-02T06:15:41;6.55;;;1.52;;
77591;SDS011;66891;46.884;17.436;2023-02-02T06:18:09;6.55;;;1.55;;
77591;SDS011;66891;46.884;17.436;2023-02-02T06:20:36;9.40;;;3.05;;
77591;SDS011;66891;46.884;17.436;2023-02-02T06:23:04;7.72;;;2.38;;
77591;SDS011;66891;46.884;17.436;2023-02-02T06:25:32;32.15;;;14.48;;
77591;SDS011;66891;46.884;17.436;2023-02-02T06:28:01;34.90;;;15.23;;
77591;SDS011;66891;46.884;17.436;2023-02-02T06:30:30;32.55;;;14.68;;
77591;SDS011;66891;46.884;17.436;2023-02-02T06:32:58;29.50;;;12.60;;
77591;SDS011;66891;46.884;17.436;2023-02-02T06:35:26;32.40;;;13.90;;
77591;SDS011;66891;46.884;17.436;2023-02-02T06:37:53;36.60;;;15.57;;
77591;SDS011;66891;46.884;17.436;2023-02-02T06:40:21;34.10;;;15.50;;
77591;SDS011;66891;46.884;17.436;2023-02-02T06:42:53;29.65;;;14.35;;
77591;SDS011;66891;46.884;17.436;2023-02-02T06:45:21;35.88;;;16.58;;
77591;SDS011;66891;46.884;17.436;2023-02-02T06:47:52;32.03;;;13.77;;
77591;SDS011;66891;46.884;17.436;2023-02-02T06:50:45;37.80;;;15.15;;
77591;SDS011;66891;46.884;17.436;2023-02-02T06:53:12;36.60;;;15.55;;
77591;SDS011;66891;46.884;17.436;2023-02-02T06:55:40;41.25;;;17.63;;
77591;SDS011;66891;46.884;17.436;2023-02-02T06:58:07;41.28;;;16.90;;
77591;SDS011;66891;46.884;17.436;2023-02-02T07:00:34;43.10;;;18.38;;
77591;SDS011;66891;46.884;17.436;2023-02-02T07:03:05;48.40;;;20.70;;
77591;SDS011;66891;46.884;17.436;2023-02-02T07:05:33;42.03;;;18.00;;
77591;SDS011;66891;46.884;17.436;2023-02-02T07:08:00;47.10;;;20.83;;
77591;SDS011;66891;46.884;17.436;2023-02-02T07:10:27;54.22;;;22.25;;
77591;SDS011;66891;46.884;17.436;2023-02-02T07:13:15;56.53;;;22.90;;
77591;SDS011;66891;46.884;17.436;2023-02-02T07:15:43;59.40;;;24.00;;
77591;SDS011;66891;46.884;17.436;2023-02-02T07:18:12;53.72;;;23.08;;
77591;SDS011;66891;46.884;17.436;2023-02-02T07:20:39;56.30;;;23.40;;
77591;SDS011;66891;46.884;17.436;2023-02-02T07:23:07;50.00;;;21.65;;
77591;SDS011;66891;46.884;17.436;2023-02-02T07:25:34;46.55;;;21.60;;
77591;SDS011;66891;46.884;17.436;2023-02-02T07:28:01;47.75;;;22.48;;
77591;SDS011;66891;46.884;17.436;2023-02-02T07:30:29;42.70;;;19.30;;
77591;SDS011;66891;46.884;17.436;2023-02-02T07:32:57;35.17;;;15.50;;
77591;SDS011;66891;46.884;17.436;2023-02-02T07:35:26;30.08;;;12.98;;
77591;SDS011;66891;46.884;17.436;2023-02-02T07:37:53;16.70;;;7.85;;
77591;SDS011;66891;46.884;17.436;2023-02-02T07:40:21;6.53;;;1.00;;
77591;SDS011;66891;46.884;17.436;2023-02-02T07:42:49;3.65;;;0.38;;
77591;SDS011;66891;46.884;17.436;2023-02-02T07:45:16;3.92;;;0.30;;
77591;SDS011;66891;46.884;17.436;2023-02-02T07:47:56;3.15;;;0.30;;
77591;SDS011;66891;46.884;17.436;2023-02-02T07:50:26;2.95;;;0.30;;
77591;SDS011;66891;46.884;17.436;2023-02-02T07:52:55;4.10;;;0.32;;
77591;SDS011;66891;46.884;17.436;2023-02-02T07:55:25;3.53;;;0.40;;
77591;SDS011;66891;46.884;17.436;2023-02-02T07:57:56;3.63;;;0.30;;
77591;SDS011;66891;46.884;17.436;2023-02-02T08:00:25;3.13;;;0.30;;
77591;SDS011;66891;46.884;17.436;2023-02-02T08:02:53;2.58;;;0.30;;
77591;SDS011;66891;46.884;17.436;2023-02-02T08:05:21;2.78;;;0.47;;
77591;SDS011;66891;46.884;17.436;2023-02-02T08:07:50;5.15;;;0.50;;
77591;SDS011;66891;46.884;17.436;2023-02-02T08:10:17;11.27;;;2.70;;
77591;SDS011;66891;46.884;17.436;2023-02-02T08:12:45;8.07;;;1.50;;
77591;SDS011;66891;46.884;17.436;2023-02-02T08:15:12;6.47;;;0.80;;
77591;SDS011;66891;46.884;17.436;2023-02-02T08:17:43;4.07;;;0.25;;
77591;SDS011;66891;46.884;17.436;2023-02-02T08:20:12;8.75;;;1.92;;
77591;SDS011;66891;46.884;17.436;2023-02-02T08:22:39;5.22;;;0.93;;
77591;SDS011;66891;46.884;17.436;2023-02-02T08:25:08;3.45;;;0.30;;
77591;SDS011;66891;46.884;17.436;2023-02-02T08:27:36;4.15;;;0.40;;
77591;SDS011;66891;46.884;17.436;2023-02-02T08:30:06;4.22;;;0.40;;
77591;SDS011;66891;46.884;17.436;2023-02-02T08:32:34;5.20;;;0.73;;
77591;SDS011;66891;46.884;17.436;2023-02-02T08:35:01;6.68;;;0.90;;
77591;SDS011;66891;46.884;17.436;2023-02-02T08:37:28;11.45;;;2.75;;
77591;SDS011;66891;46.884;17.436;2023-02-02T08:39:56;8.20;;;1.60;;
77591;SDS011;66891;46.884;17.436;2023-02-02T08:45:18;6.78;;;1.30;;
77591;SDS011;66891;46.884;17.436;2023-02-02T08:48:05;5.47;;;0.88;;
77591;SDS011;66891;46.884;17.436;2023-02-02T08:50:40;8.93;;;2.00;;
77591;SDS011;66891;46.884;17.436;2023-02-02T08:53:08;12.48;;;2.97;;
77591;SDS011;66891;46.884;17.436;2023-02-02T08:55:37;10.02;;;2.22;;
77591;SDS011;66891;46.884;17.436;2023-02-02T08:58:14;7.20;;;1.00;;
77591;SDS011;66891;46.884;17.436;2023-02-02T09:00:42;7.95;;;1.95;;
77591;SDS011;66891;46.884;17.436;2023-02-02T09:03:09;8.35;;;1.67;;
77591;SDS011;66891;46.884;17.436;2023-02-02T09:05:37;7.50;;;1.45;;
77591;SDS011;66891;46.884;17.436;2023-02-02T09:08:04;7.57;;;1.50;;
77591;SDS011;66891;46.884;17.436;2023-02-02T09:10:39;3.60;;;0.40;;
77591;SDS011;66891;46.884;17.436;2023-02-02T09:13:11;6.00;;;0.88;;
77591;SDS011;66891;46.884;17.436;2023-02-02T09:16:07;4.90;;;0.60;;
77591;SDS011;66891;46.884;17.436;2023-02-02T09:18:39;3.00;;;0.40;;
77591;SDS011;66891;46.884;17.436;2023-02-02T09:21:07;3.67;;;0.50;;
77591;SDS011;66891;46.884;17.436;2023-02-02T09:23:37;3.47;;;0.47;;
77591;SDS011;66891;46.884;17.436;2023-02-02T09:26:09;4.60;;;0.40;;
77591;SDS011;66891;46.884;17.436;2023-02-02T09:28:38;3.17;;;0.30;;
77591;SDS011;66891;46.884;17.436;2023-02-02T09:31:08;5.03;;;0.90;;
77591;SDS011;66891;46.884;17.436;2023-02-02T09:33:36;3.33;;;0.40;;
77591;SDS011;66891;46.884;17.436;2023-02-02T09:36:04;3.47;;;0.32;;
77591;SDS011;66891;46.884;17.436;2023-02-02T09:38:35;4.90;;;0.95;;
77591;SDS011;66891;46.884;17.436;2023-02-02T09:41:11;3.17;;;0.40;;
77591;SDS011;66891;46.884;17.436;2023-02-02T09:43:57;5.35;;;0.80;;
77591;SDS011;66891;46.884;17.436;2023-02-02T09:46:34;5.00;;;0.60;;
77591;SDS011;66891;46.884;17.436;2023-02-02T09:49:18;3.92;;;0.40;;
77591;SDS011;66891;46.884;17.436;2023-02-02T09:51:57;3.90;;;0.40;;
77591;SDS011;66891;46.884;17.436;2023-02-02T09:54:33;4.65;;;0.82;;
77591;SDS011;66891;46.884;17.436;2023-02-02T09:57:09;3.88;;;0.50;;
77591;SDS011;66891;46.884;17.436;2023-02-02T09:59:42;2.53;;;0.30;;
77591;SDS011;66891;46.884;17.436;2023-02-02T10:02:16;4.43;;;0.50;;
77591;SDS011;66891;46.884;17.436;2023-02-02T10:04:47;3.22;;;0.30;;
77591;SDS011;66891;46.884;17.436;2023-02-02T10:07:18;4.15;;;0.40;;
77591;SDS011;66891;46.884;17.436;2023-02-02T10:09:53;3.22;;;0.40;;
77591;SDS011;66891;46.884;17.436;2023-02-02T10:12:29;3.83;;;0.50;;
77591;SDS011;66891;46.884;17.436;2023-02-02T10:15:03;3.60;;;0.40;;
77591;SDS011;66891;46.884;17.436;2023-02-02T10:17:42;4.88;;;0.60;;
77591;SDS011;66891;46.884;17.436;2023-02-02T10:20:21;6.50;;;1.00;;
77591;SDS011;66891;46.884;17.436;2023-02-02T10:23:24;9.52;;;1.98;;
77591;SDS011;66891;46.884;17.436;2023-02-02T10:25:55;8.45;;;0.90;;
77591;SDS011;66891;46.884;17.436;2023-02-02T10:28:41;5.75;;;0.75;;
77591;SDS011;66891;46.884;17.436;2023-02-02T10:31:16;4.18;;;0.45;;
77591;SDS011;66891;46.884;17.436;2023-02-02T10:33:51;5.15;;;0.60;;
77591;SDS011;66891;46.884;17.436;2023-02-02T10:36:31;3.88;;;0.60;;
77591;SDS011;66891;46.884;17.436;2023-02-02T10:39:09;6.37;;;0.73;;
77591;SDS011;66891;46.884;17.436;2023-02-02T10:41:51;8.48;;;1.73;;
77591;SDS011;66891;46.884;17.436;2023-02-02T10:44:31;6.53;;;0.70;;
77591;SDS011;66891;46.884;17.436;2023-02-02T10:47:05;6.43;;;0.60;;
77591;SDS011;66891;46.884;17.436;2023-02-02T10:49:41;6.47;;;0.70;;
77591;SDS011;66891;46.884;17.436;2023-02-02T10:52:14;5.97;;;0.50;;
77591;SDS011;66891;46.884;17.436;2023-02-02T10:54:46;7.35;;;1.23;;
77591;SDS011;66891;46.884;17.436;2023-02-02T10:57:27;3.97;;;0.50;;
77591;SDS011;66891;46.884;17.436;2023-02-02T11:00:05;4.43;;;0.50;;
77591;SDS011;66891;46.884;17.436;2023-02-02T11:02:49;3.17;;;0.30;;
77591;SDS011;66891;46.884;17.436;2023-02-02T11:05:21;5.35;;;0.90;;
77591;SDS011;66891;46.884;17.436;2023-02-02T11:08:12;3.42;;;0.40;;
77591;SDS011;66891;46.884;17.436;2023-02-02T11:10:43;5.10;;;0.73;;
77591;SDS011;66891;46.884;17.436;2023-02-02T11:13:23;8.32;;;1.30;;
77591;SDS011;66891;46.884;17.436;2023-02-02T11:18:58;5.50;;;0.90;;
77591;SDS011;66891;46.884;17.436;2023-02-02T11:21:28;4.85;;;0.50;;
77591;SDS011;66891;46.884;17.436;2023-02-02T11:23:58;6.55;;;0.80;;
77591;SDS011;66891;46.884;17.436;2023-02-02T11:26:39;4.43;;;0.60;;
77591;SDS011;66891;46.884;17.436;2023-02-02T11:29:50;4.82;;;0.57;;
77591;SDS011;66891;46.884;17.436;2023-02-02T11:32:19;4.97;;;0.60;;
77591;SDS011;66891;46.884;17.436;2023-02-02T11:35:15;5.18;;;0.60;;
77591;SDS011;66891;46.884;17.436;2023-02-02T11:37:53;4.55;;;0.73;;
77591;SDS011;66891;46.884;17.436;2023-02-02T11:40:28;3.55;;;0.30;;
77591;SDS011;66891;46.884;17.436;2023-02-02T11:42:57;5.55;;;0.88;;
77591;SDS011;66891;46.884;17.436;2023-02-02T11:45:28;5.93;;;0.50;;
77591;SDS011;66891;46.884;17.436;2023-02-02T11:48:00;2.78;;;0.40;;
77591;SDS011;66891;46.884;17.436;2023-02-02T11:50:33;5.28;;;0.60;;
77591;SDS011;66891;46.884;17.436;2023-02-02T11:53:03;6.68;;;1.17;;
77591;SDS011;66891;46.884;17.436;2023-02-02T11:55:30;3.88;;;0.57;;
77591;SDS011;66891;46.884;17.436;2023-02-02T11:58:20;4.63;;;0.70;;
77591;SDS011;66891;46.884;17.436;2023-02-02T12:00:51;3.95;;;0.40;;
77591;SDS011;66891;46.884;17.436;2023-02-02T12:03:31;2.25;;;0.30;;
77591;SDS011;66891;46.884;17.436;2023-02-02T12:06:00;3.72;;;0.40;;
77591;SDS011;66891;46.884;17.436;2023-02-02T12:08:45;4.47;;;0.50;;
77591;SDS011;66891;46.884;17.436;2023-02-02T12:11:16;1.90;;;0.20;;
77591;SDS011;66891;46.884;17.436;2023-02-02T12:13:56;3.38;;;0.40;;
77591;SDS011;66891;46.884;17.436;2023-02-02T12:16:40;6.78;;;0.85;;
77591;SDS011;66891;46.884;17.436;2023-02-02T12:19:23;5.97;;;0.80;;
77591;SDS011;66891;46.884;17.436;2023-02-02T12:22:17;10.73;;;2.30;;
77591;SDS011;66891;46.884;17.436;2023-02-02T12:24:55;6.53;;;1.35;;
77591;SDS011;66891;46.884;17.436;2023-02-02T12:27:30;3.67;;;0.60;;
77591;SDS011;66891;46.884;17.436;2023-02-02T12:30:14;3.55;;;0.63;;
77591;SDS011;66891;46.884;17.436;2023-02-02T12:32:53;7.25;;;1.35;;
77591;SDS011;66891;46.884;17.436;2023-02-02T12:38:20;8.03;;;1.67;;
77591;SDS011;66891;46.884;17.436;2023-02-02T12:41:02;7.13;;;1.48;;
77591;SDS011;66891;46.884;17.436;2023-02-02T12:43:43;14.27;;;3.58;;
77591;SDS011;66891;46.884;17.436;2023-02-02T12:46:20;4.40;;;0.70;;
77591;SDS011;66891;46.884;17.436;2023-02-02T12:49:03;5.85;;;1.13;;
77591;SDS011;66891;46.884;17.436;2023-02-02T12:51:47;6.60;;;1.50;;
77591;SDS011;66891;46.884;17.436;2023-02-02T12:54:25;7.50;;;0.95;;
77591;SDS011;66891;46.884;17.436;2023-02-02T12:57:23;6.07;;;1.00;;
77591;SDS011;66891;46.884;17.436;2023-02-02T13:00:01;7.82;;;1.55;;
77591;SDS011;66891;46.884;17.436;2023-02-02T13:02:39;9.70;;;2.28;;
77591;SDS011;66891;46.884;17.436;2023-02-02T13:05:26;13.68;;;3.25;;
77591;SDS011;66891;46.884;17.436;2023-02-02T13:08:05;13.10;;;2.75;;
77591;SDS011;66891;46.884;17.436;2023-02-02T13:10:35;14.05;;;3.65;;
77591;SDS011;66891;46.884;17.436;2023-02-02T13:13:08;14.07;;;3.13;;
77591;SDS011;66891;46.884;17.436;2023-02-02T13:15:39;10.05;;;3.50;;
77591;SDS011;66891;46.884;17.436;2023-02-02T13:18:10;10.27;;;3.70;;
77591;SDS011;66891;46.884;17.436;2023-02-02T13:20:44;13.13;;;4.82;;
77591;SDS011;66891;46.884;17.436;2023-02-02T13:23:16;9.70;;;2.78;;
77591;SDS011;66891;46.884;17.436;2023-02-02T13:25:47;5.90;;;1.45;;
77591;SDS011;66891;46.884;17.436;2023-02-02T13:31:06;11.03;;;2.83;;
77591;SDS011;66891;46.884;17.436;2023-02-02T13:33:39;9.60;;;2.50;;
77591;SDS011;66891;46.884;17.436;2023-02-02T13:36:13;12.48;;;3.40;;
77591;SDS011;66891;46.884;17.436;2023-02-02T13:38:43;14.40;;;4.65;;
77591;SDS011;66891;46.884;17.436;2023-02-02T13:41:19;5.85;;;1.17;;
77591;SDS011;66891;46.884;17.436;2023-02-02T13:43:50;10.07;;;2.30;;
77591;SDS011;66891;46.884;17.436;2023-02-02T13:46:24;5.85;;;0.80;;
77591;SDS011;66891;46.884;17.436;2023-02-02T13:49:06;7.95;;;1.48;;
77591;SDS011;66891;46.884;17.436;2023-02-02T13:51:47;8.20;;;1.83;;
77591;SDS011;66891;46.884;17.436;2023-02-02T13:57:43;6.80;;;1.50;;
77591;SDS011;66891;46.884;17.436;2023-02-02T14:00:24;8.68;;;1.95;;
77591;SDS011;66891;46.884;17.436;2023-02-02T14:02:55;7.70;;;1.77;;
77591;SDS011;66891;46.884;17.436;2023-02-02T14:05:25;6.63;;;1.25;;
77591;SDS011;66891;46.884;17.436;2023-02-02T14:07:55;10.75;;;2.67;;
77591;SDS011;66891;46.884;17.436;2023-02-02T14:10:28;5.27;;;0.80;;
77591;SDS011;66891;46.884;17.436;2023-02-02T14:13:05;6.05;;;1.10;;
77591;SDS011;66891;46.884;17.436;2023-02-02T14:16:13;12.93;;;2.65;;
77591;SDS011;66891;46.884;17.436;2023-02-02T14:18:51;7.13;;;1.48;;
77591;SDS011;66891;46.884;17.436;2023-02-02T14:24:41;8.10;;;2.17;;
77591;SDS011;66891;46.884;17.436;2023-02-02T14:30:24;4.32;;;0.77;;
77591;SDS011;66891;46.884;17.436;2023-02-02T14:36:03;7.10;;;1.20;;
77591;SDS011;66891;46.884;17.436;2023-02-02T14:41:32;5.40;;;0.68;;
77591;SDS011;66891;46.884;17.436;2023-02-02T14:44:31;6.63;;;0.90;;
77591;SDS011;66891;46.884;17.436;2023-02-02T14:47:00;8.95;;;1.55;;
77591;SDS011;66891;46.884;17.436;2023-02-02T14:49:32;11.52;;;1.73;;
77591;SDS011;66891;46.884;17.436;2023-02-02T14:52:01;15.20;;;3.13;;
77591;SDS011;66891;46.884;17.436;2023-02-02T14:54:32;9.20;;;2.38;;
77591;SDS011;66891;46.884;17.436;2023-02-02T14:57:18;12.68;;;2.35;;
77591;SDS011;66891;46.884;17.436;2023-02-02T14:59:49;8.07;;;1.10;;
77591;SDS011;66891;46.884;17.436;2023-02-02T15:02:21;6.30;;;1.08;;
77591;SDS011;66891;46.884;17.436;2023-02-02T15:04:52;5.07;;;0.80;;
77591;SDS011;66891;46.884;17.436;2023-02-02T15:08:05;10.02;;;2.60;;
77591;SDS011;66891;46.884;17.436;2023-02-02T15:14:00;7.38;;;1.67;;
77591;SDS011;66891;46.884;17.436;2023-02-02T15:16:35;8.15;;;1.25;;
77591;SDS011;66891;46.884;17.436;2023-02-02T15:19:19;7.23;;;1.40;;
77591;SDS011;66891;46.884;17.436;2023-02-02T15:21:52;7.38;;;1.50;;
77591;SDS011;66891;46.884;17.436;2023-02-02T15:24:23;12.90;;;2.28;;
77591;SDS011;66891;46.884;17.436;2023-02-02T15:26:52;5.40;;;1.17;;
77591;SDS011;66891;46.884;17.436;2023-02-02T15:29:30;5.47;;;0.93;;
77591;SDS011;66891;46.884;17.436;2023-02-02T15:32:03;7.50;;;1.88;;
77591;SDS011;66891;46.884;17.436;2023-02-02T15:34:35;8.15;;;2.35;;
77591;SDS011;66891;46.884;17.436;2023-02-02T15:37:09;7.43;;;1.20;;
77591;SDS011;66891;46.884;17.436;2023-02-02T15:39:40;9.00;;;1.90;;